sensor_id;sensor_type;location;lat;lon;timestamp;pressure;altitude;pressure_sealevel;temperature;humidity
80988;BME280;70452;39.386;-3.210;2024-02-04T04:43:30;95433.97;;;1.95;100.00
80988;BME280;70452;39.386;-3.210;2024-02-04T05:11:49;95446.50;;;1.81;100.00
80988;BME280;70452;39.386;-3.210;2024-02-04T06:24:48;95448.59;;;0.73;100.00
80988;BME280;70452;39.386;-3.210;2024-02-04T06:42:37;95454.56;;;0.17;100.00
80988;BME280;70452;39.386;-3.210;2024-02-04T07:11:19;95468.66;;;-0.70;100.00
80988;BME280;70452;39.386;-3.210;2024-02-04T08:15:25;95504.63;;;1.26;100.00
80988;BME280;70452;39.386;-3.210;2024-02-04T08:32:15;95514.63;;;2.37;100.00
80988;BME280;70452;39.386;-3.210;2024-02-04T08:35:34;95508.72;;;2.55;100.00
80988;BME280;70452;39.386;-3.210;2024-02-04T08:38:35;95505.00;;;2.62;100.00
80988;BME280;70452;39.386;-3.210;2024-02-04T08:41:59;95503.38;;;2.68;100.00
80988;BME280;70452;39.386;-3.210;2024-02-04T09:31:52;95516.47;;;7.27;100.00
80988;BME280;70452;39.386;-3.210;2024-02-04T09:41:49;95521.81;;;7.99;100.00
80988;BME280;70452;39.386;-3.210;2024-02-04T10:05:58;95530.47;;;9.08;100.00
80988;BME280;70452;39.386;-3.210;2024-02-04T10:15:58;95538.72;;;9.70;100.00
80988;BME280;70452;39.386;-3.210;2024-02-04T10:32:51;95549.72;;;10.26;100.00
80988;BME280;70452;39.386;-3.210;2024-02-04T10:46:51;95555.47;;;10.64;100.00
80988;BME280;70452;39.386;-3.210;2024-02-04T11:14:31;95528.25;;;11.57;100.00
80988;BME280;70452;39.386;-3.210;2024-02-04T11:30:36;95521.81;;;12.28;100.00
80988;BME280;70452;39.386;-3.210;2024-02-04T12:43:26;95455.94;;;14.02;82.29
80988;BME280;70452;39.386;-3.210;2024-02-04T12:54:10;95435.91;;;14.38;79.96
80988;BME280;70452;39.386;-3.210;2024-02-04T14:32:10;95332.34;;;15.98;49.91
80988;BME280;70452;39.386;-3.210;2024-02-04T17:04:49;95323.66;;;13.56;54.38
80988;BME280;70452;39.386;-3.210;2024-02-04T17:07:37;95327.50;;;13.44;54.41
80988;BME280;70452;39.386;-3.210;2024-02-04T17:10:29;95332.38;;;13.27;54.72
80988;BME280;70452;39.386;-3.210;2024-02-04T17:12:58;95335.41;;;13.66;53.97
80988;BME280;70452;39.386;-3.210;2024-02-04T17:15:30;95330.50;;;13.84;53.35
80988;BME280;70452;39.386;-3.210;2024-02-04T17:18:28;95339.81;;;13.42;54.64
80988;BME280;70452;39.386;-3.210;2024-02-04T17:21:10;95343.31;;;13.22;55.08
80988;BME280;70452;39.386;-3.210;2024-02-04T17:23:47;95345.03;;;13.48;54.76
80988;BME280;70452;39.386;-3.210;2024-02-04T17:26:34;95342.28;;;13.59;54.63
80988;BME280;70452;39.386;-3.210;2024-02-04T17:29:05;95341.16;;;13.19;57.66
80988;BME280;70452;39.386;-3.210;2024-02-04T17:31:42;95340.03;;;13.09;56.16
80988;BME280;70452;39.386;-3.210;2024-02-04T17:34:11;95339.22;;;13.19;55.65
80988;BME280;70452;39.386;-3.210;2024-02-04T17:37:10;95337.34;;;13.45;56.62
80988;BME280;70452;39.386;-3.210;2024-02-04T17:39:39;95340.03;;;13.09;56.69
80988;BME280;70452;39.386;-3.210;2024-02-04T17:42:14;95341.09;;;12.83;57.38
80988;BME280;70452;39.386;-3.210;2024-02-04T17:44:45;95344.31;;;12.64;58.20
80988;BME280;70452;39.386;-3.210;2024-02-04T17:47:14;95344.34;;;12.80;58.47
80988;BME280;70452;39.386;-3.210;2024-02-04T17:50:14;95345.69;;;12.72;58.73
80988;BME280;70452;39.386;-3.210;2024-02-04T17:52:44;95341.13;;;12.19;60.69
80988;BME280;70452;39.386;-3.210;2024-02-04T17:55:33;95343.81;;;12.14;61.10
80988;BME280;70452;39.386;-3.210;2024-02-04T17:58:03;95347.84;;;12.01;61.84
80988;BME280;70452;39.386;-3.210;2024-02-04T18:00:42;95346.91;;;12.28;61.50
80988;BME280;70452;39.386;-3.210;2024-02-04T18:03:13;95345.59;;;12.46;60.72
80988;BME280;70452;39.386;-3.210;2024-02-04T18:05:42;95348.81;;;12.28;61.17
80988;BME280;70452;39.386;-3.210;2024-02-04T18:08:12;95351.97;;;12.04;62.05
80988;BME280;70452;39.386;-3.210;2024-02-04T18:10:43;95348.34;;;11.93;62.88
80988;BME280;70452;39.386;-3.210;2024-02-04T18:13:34;95354.78;;;11.82;63.93
80988;BME280;70452;39.386;-3.210;2024-02-04T18:16:05;95358.78;;;11.64;64.84
80988;BME280;70452;39.386;-3.210;2024-02-04T18:18:44;95356.28;;;11.57;65.68
80988;BME280;70452;39.386;-3.210;2024-02-04T18:21:22;95362.69;;;11.78;65.66
80988;BME280;70452;39.386;-3.210;2024-02-04T18:23:57;95353.75;;;11.18;67.74
80988;BME280;70452;39.386;-3.210;2024-02-04T18:26:33;95363.69;;;10.75;70.02
80988;BME280;70452;39.386;-3.210;2024-02-04T18:29:29;95363.88;;;10.68;70.46
80988;BME280;70452;39.386;-3.210;2024-02-04T18:32:20;95362.81;;;10.69;70.77
80988;BME280;70452;39.386;-3.210;2024-02-04T18:35:07;95360.59;;;10.66;71.19
80988;BME280;70452;39.386;-3.210;2024-02-04T18:37:47;95364.09;;;10.62;71.36
80988;BME280;70452;39.386;-3.210;2024-02-04T18:40:22;95370.63;;;10.61;71.55
80988;BME280;70452;39.386;-3.210;2024-02-04T18:42:55;95367.31;;;10.59;71.75
80988;BME280;70452;39.386;-3.210;2024-02-04T18:45:34;95372.19;;;10.57;71.36
80988;BME280;70452;39.386;-3.210;2024-02-04T18:48:18;95373.00;;;10.52;69.23
80988;BME280;70452;39.386;-3.210;2024-02-04T18:50:58;95374.38;;;10.55;67.71
80988;BME280;70452;39.386;-3.210;2024-02-04T18:53:26;95375.31;;;10.43;67.89
80988;BME280;70452;39.386;-3.210;2024-02-04T18:56:02;95377.53;;;10.46;67.63
80988;BME280;70452;39.386;-3.210;2024-02-04T18:58:54;95381.22;;;10.35;68.55
80988;BME280;70452;39.386;-3.210;2024-02-04T19:01:25;95381.06;;;10.25;68.78
80988;BME280;70452;39.386;-3.210;2024-02-04T19:04:01;95382.88;;;10.19;70.16
80988;BME280;70452;39.386;-3.210;2024-02-04T19:06:39;95377.75;;;10.23;69.99
80988;BME280;70452;39.386;-3.210;2024-02-04T19:09:12;95379.59;;;10.17;70.03
80988;BME280;70452;39.386;-3.210;2024-02-04T19:11:45;95374.50;;;10.43;69.58
80988;BME280;70452;39.386;-3.210;2024-02-04T19:14:12;95374.56;;;10.48;69.59
80988;BME280;70452;39.386;-3.210;2024-02-04T19:16:41;95375.03;;;10.23;70.77
80988;BME280;70452;39.386;-3.210;2024-02-04T19:19:12;95378.38;;;10.08;71.20
80988;BME280;70452;39.386;-3.210;2024-02-04T19:21:45;95377.19;;;10.21;70.56
80988;BME280;70452;39.386;-3.210;2024-02-04T19:24:14;95377.72;;;10.40;70.44
80988;BME280;70452;39.386;-3.210;2024-02-04T19:26:46;95382.41;;;10.05;71.59
80988;BME280;70452;39.386;-3.210;2024-02-04T19:29:15;95379.41;;;9.85;72.38
80988;BME280;70452;39.386;-3.210;2024-02-04T19:31:49;95377.63;;;9.73;73.42
80988;BME280;70452;39.386;-3.210;2024-02-04T19:34:20;95372.03;;;9.63;74.11
80988;BME280;70452;39.386;-3.210;2024-02-04T19:36:51;95377.56;;;9.51;75.37
80988;BME280;70452;39.386;-3.210;2024-02-04T19:39:18;95371.94;;;9.75;74.48
80988;BME280;70452;39.386;-3.210;2024-02-04T19:41:51;95374.00;;;10.07;73.17
80988;BME280;70452;39.386;-3.210;2024-02-04T19:44:26;95376.84;;;9.78;74.38
80988;BME280;70452;39.386;-3.210;2024-02-04T19:46:55;95377.06;;;9.54;76.27
80988;BME280;70452;39.386;-3.210;2024-02-04T19:49:34;95388.50;;;9.56;76.53
80988;BME280;70452;39.386;-3.210;2024-02-04T19:52:08;95387.53;;;10.02;74.25
80988;BME280;70452;39.386;-3.210;2024-02-04T19:54:34;95391.72;;;9.53;76.94
80988;BME280;70452;39.386;-3.210;2024-02-04T19:57:00;95390.22;;;9.12;79.76
80988;BME280;70452;39.386;-3.210;2024-02-04T19:59:25;95392.13;;;9.45;78.67
80988;BME280;70452;39.386;-3.210;2024-02-04T20:01:51;95390.81;;;9.65;78.16
80988;BME280;70452;39.386;-3.210;2024-02-04T20:04:19;95388.44;;;9.34;80.08
80988;BME280;70452;39.386;-3.210;2024-02-04T20:06:44;95390.41;;;9.22;80.77
80988;BME280;70452;39.386;-3.210;2024-02-04T20:09:13;95390.72;;;9.09;82.11
80988;BME280;70452;39.386;-3.210;2024-02-04T20:11:39;95396.09;;;9.37;81.20
80988;BME280;70452;39.386;-3.210;2024-02-04T20:14:07;95401.22;;;9.51;78.50
80988;BME280;70452;39.386;-3.210;2024-02-04T20:16:41;95398.16;;;9.30;79.49
80988;BME280;70452;39.386;-3.210;2024-02-04T20:19:10;95406.25;;;9.42;78.73
80988;BME280;70452;39.386;-3.210;2024-02-04T20:21:36;95406.00;;;9.27;79.78
80988;BME280;70452;39.386;-3.210;2024-02-04T20:24:04;95407.19;;;9.19;80.58
80988;BME280;70452;39.386;-3.210;2024-02-04T20:26:31;95402.44;;;9.43;79.40
80988;BME280;70452;39.386;-3.210;2024-02-04T20:29:02;95395.69;;;9.46;78.86
80988;BME280;70452;39.386;-3.210;2024-02-04T20:31:31;95392.59;;;9.08;81.96
80988;BME280;70452;39.386;-3.210;2024-02-04T20:34:00;95397.34;;;8.84;83.91
80988;BME280;70452;39.386;-3.210;2024-02-04T20:36:36;95396.06;;;8.75;84.73
80988;BME280;70452;39.386;-3.210;2024-02-04T20:39:05;95388.56;;;8.65;85.69
80988;BME280;70452;39.386;-3.210;2024-02-04T20:41:31;95394.44;;;8.74;84.21
80988;BME280;70452;39.386;-3.210;2024-02-04T20:44:17;95398.06;;;8.79;82.97
80988;BME280;70452;39.386;-3.210;2024-02-04T20:46:45;95399.03;;;9.19;80.17
80988;BME280;70452;39.386;-3.210;2024-02-04T20:49:11;95399.88;;;9.36;77.89
80988;BME280;70452;39.386;-3.210;2024-02-04T20:51:42;95394.69;;;9.35;77.39
80988;BME280;70452;39.386;-3.210;2024-02-04T20:54:09;95397.47;;;9.06;78.61
80988;BME280;70452;39.386;-3.210;2024-02-04T20:56:34;95394.09;;;9.16;77.78
80988;BME280;70452;39.386;-3.210;2024-02-04T20:59:06;95405.22;;;9.14;78.41
80988;BME280;70452;39.386;-3.210;2024-02-04T21:01:41;95406.56;;;9.29;77.64
80988;BME280;70452;39.386;-3.210;2024-02-04T21:04:10;95403.34;;;9.15;78.08
80988;BME280;70452;39.386;-3.210;2024-02-04T21:06:38;95397.16;;;8.74;80.78
80988;BME280;70452;39.386;-3.210;2024-02-04T21:09:15;95400.69;;;8.74;81.62
80988;BME280;70452;39.386;-3.210;2024-02-04T21:11:44;95403.72;;;8.78;81.31
80988;BME280;70452;39.386;-3.210;2024-02-04T21:14:13;95405.97;;;8.81;81.48
80988;BME280;70452;39.386;-3.210;2024-02-04T21:16:41;95399.75;;;8.69;82.68
80988;BME280;70452;39.386;-3.210;2024-02-04T21:19:07;95400.19;;;8.77;82.24
80988;BME280;70452;39.386;-3.210;2024-02-04T21:21:40;95400.69;;;8.74;82.52
80988;BME280;70452;39.386;-3.210;2024-02-04T21:24:10;95406.06;;;8.57;83.66
80988;BME280;70452;39.386;-3.210;2024-02-04T21:26:45;95409.66;;;8.46;85.47
80988;BME280;70452;39.386;-3.210;2024-02-04T21:29:14;95406.25;;;8.27;86.78
80988;BME280;70452;39.386;-3.210;2024-02-04T21:31:43;95408.56;;;8.35;86.39
80988;BME280;70452;39.386;-3.210;2024-02-04T21:34:11;95415.75;;;8.53;85.62
80988;BME280;70452;39.386;-3.210;2024-02-04T21:36:46;95410.41;;;8.70;84.04
80988;BME280;70452;39.386;-3.210;2024-02-04T21:39:21;95409.44;;;8.12;88.63
80988;BME280;70452;39.386;-3.210;2024-02-04T21:41:53;95412.63;;;7.97;90.54
80988;BME280;70452;39.386;-3.210;2024-02-04T21:44:19;95417.72;;;7.94;91.92
80988;BME280;70452;39.386;-3.210;2024-02-04T21:46:48;95409.56;;;7.94;92.41
80988;BME280;70452;39.386;-3.210;2024-02-04T21:49:17;95409.09;;;7.85;93.50
80988;BME280;70452;39.386;-3.210;2024-02-04T21:51:54;95412.56;;;7.68;96.03
80988;BME280;70452;39.386;-3.210;2024-02-04T21:54:20;95407.94;;;7.57;98.11
80988;BME280;70452;39.386;-3.210;2024-02-04T21:56:46;95408.63;;;7.53;98.55
80988;BME280;70452;39.386;-3.210;2024-02-04T21:59:15;95407.91;;;7.45;99.99
80988;BME280;70452;39.386;-3.210;2024-02-04T22:01:46;95419.47;;;7.41;100.00
80988;BME280;70452;39.386;-3.210;2024-02-04T22:04:16;95414.28;;;7.39;100.00
80988;BME280;70452;39.386;-3.210;2024-02-04T22:06:43;95416.72;;;7.17;100.00
80988;BME280;70452;39.386;-3.210;2024-02-04T22:09:09;95419.19;;;7.07;100.00
80988;BME280;70452;39.386;-3.210;2024-02-04T22:11:47;95428.53;;;7.23;100.00
80988;BME280;70452;39.386;-3.210;2024-02-04T22:14:16;95433.50;;;7.38;100.00
80988;BME280;70452;39.386;-3.210;2024-02-04T22:16:45;95431.75;;;7.01;100.00
80988;BME280;70452;39.386;-3.210;2024-02-04T22:19:12;95439.97;;;6.83;100.00
80988;BME280;70452;39.386;-3.210;2024-02-04T22:21:41;95427.16;;;6.71;100.00
80988;BME280;70452;39.386;-3.210;2024-02-04T22:24:08;95429.00;;;6.59;100.00
80988;BME280;70452;39.386;-3.210;2024-02-04T22:26:37;95429.09;;;6.52;100.00
80988;BME280;70452;39.386;-3.210;2024-02-04T22:29:05;95429.31;;;6.51;100.00
80988;BME280;70452;39.386;-3.210;2024-02-04T22:31:35;95420.44;;;6.44;100.00
80988;BME280;70452;39.386;-3.210;2024-02-04T22:34:08;95434.81;;;6.26;100.00
80988;BME280;70452;39.386;-3.210;2024-02-04T22:36:52;95437.22;;;6.15;100.00
80988;BME280;70452;39.386;-3.210;2024-02-04T22:39:34;95429.81;;;6.11;100.00
80988;BME280;70452;39.386;-3.210;2024-02-04T22:42:26;95440.47;;;5.80;100.00
80988;BME280;70452;39.386;-3.210;2024-02-04T22:44:55;95433.88;;;5.76;100.00
80988;BME280;70452;39.386;-3.210;2024-02-04T22:47:27;95444.25;;;5.54;100.00
80988;BME280;70452;39.386;-3.210;2024-02-04T22:49:59;95437.72;;;5.43;100.00
80988;BME280;70452;39.386;-3.210;2024-02-04T22:52:27;95441.44;;;5.42;100.00
80988;BME280;70452;39.386;-3.210;2024-02-04T22:54:52;95441.66;;;5.41;100.00
80988;BME280;70452;39.386;-3.210;2024-02-04T22:57:18;95437.00;;;5.73;100.00
80988;BME280;70452;39.386;-3.210;2024-02-04T22:59:46;95440.56;;;5.92;100.00
80988;BME280;70452;39.386;-3.210;2024-02-04T23:02:12;95447.16;;;6.03;100.00
80988;BME280;70452;39.386;-3.210;2024-02-04T23:04:39;95444.31;;;6.16;100.00
80988;BME280;70452;39.386;-3.210;2024-02-04T23:07:18;95444.69;;;6.20;100.00
80988;BME280;70452;39.386;-3.210;2024-02-04T23:09:46;95441.31;;;6.25;100.00
80988;BME280;70452;39.386;-3.210;2024-02-04T23:12:12;95442.28;;;6.30;100.00
80988;BME280;70452;39.386;-3.210;2024-02-04T23:14:38;95443.94;;;6.31;100.00
80988;BME280;70452;39.386;-3.210;2024-02-04T23:17:06;95443.94;;;6.31;100.00
80988;BME280;70452;39.386;-3.210;2024-02-04T23:19:35;95437.94;;;6.29;100.00
80988;BME280;70452;39.386;-3.210;2024-02-04T23:22:03;95441.69;;;6.28;100.00
80988;BME280;70452;39.386;-3.210;2024-02-04T23:24:28;95431.06;;;6.27;100.00
80988;BME280;70452;39.386;-3.210;2024-02-04T23:26:54;95444.59;;;6.27;100.00
80988;BME280;70452;39.386;-3.210;2024-02-04T23:29:26;95442.94;;;6.26;100.00
80988;BME280;70452;39.386;-3.210;2024-02-04T23:31:58;95441.31;;;6.25;100.00
80988;BME280;70452;39.386;-3.210;2024-02-04T23:34:23;95439.84;;;6.22;100.00
80988;BME280;70452;39.386;-3.210;2024-02-04T23:36:55;95433.03;;;6.19;100.00
80988;BME280;70452;39.386;-3.210;2024-02-04T23:39:20;95432.88;;;6.14;100.00
80988;BME280;70452;39.386;-3.210;2024-02-04T23:41:49;95429.66;;;6.24;100.00
80988;BME280;70452;39.386;-3.210;2024-02-04T23:44:20;95426.53;;;6.20;100.00
80988;BME280;70452;39.386;-3.210;2024-02-04T23:46:50;95430.78;;;6.16;100.00
80988;BME280;70452;39.386;-3.210;2024-02-04T23:49:15;95425.16;;;5.93;100.00
80988;BME280;70452;39.386;-3.210;2024-02-04T23:51:50;95424.38;;;5.67;100.00
80988;BME280;70452;39.386;-3.210;2024-02-04T23:54:23;95425.78;;;5.51;100.00
80988;BME280;70452;39.386;-3.210;2024-02-04T23:56:50;95431.59;;;5.30;100.00
80988;BME280;70452;39.386;-3.210;2024-02-04T23:59:15;95437.31;;;5.15;100.00
